sensor_id;sensor_type;location;lat;lon;timestamp;pressure;altitude;pressure_sealevel;temperature;humidity
6030;BME280;3043;42.682;23.376;2022-11-25T00:00:49;94656.84;;;6.51;100.00
6030;BME280;3043;42.682;23.376;2022-11-25T00:03:15;94668.13;;;6.42;100.00
6030;BME280;3043;42.682;23.376;2022-11-25T00:05:40;94664.63;;;6.46;100.00
6030;BME280;3043;42.682;23.376;2022-11-25T00:08:06;94669.88;;;6.39;100.00
6030;BME280;3043;42.682;23.376;2022-11-25T00:10:31;94669.06;;;6.37;100.00
6030;BME280;3043;42.682;23.376;2022-11-25T00:12:57;94664.75;;;6.39;100.00
6030;BME280;3043;42.682;23.376;2022-11-25T00:15:22;94666.59;;;6.28;100.00
6030;BME280;3043;42.682;23.376;2022-11-25T00:17:47;94669.09;;;6.34;100.00
6030;BME280;3043;42.682;23.376;2022-11-25T00:20:13;94673.44;;;6.32;100.00
6030;BME280;3043;42.682;23.376;2022-11-25T00:22:38;94681.19;;;6.29;100.00
6030;BME280;3043;42.682;23.376;2022-11-25T00:25:04;94682.78;;;6.36;100.00
6030;BME280;3043;42.682;23.376;2022-11-25T00:27:30;94681.13;;;6.32;100.00
6030;BME280;3043;42.682;23.376;2022-11-25T00:29:55;94674.34;;;6.25;100.00
6030;BME280;3043;42.682;23.376;2022-11-25T00:32:21;94689.78;;;6.25;100.00
6030;BME280;3043;42.682;23.376;2022-11-25T00:34:46;94672.72;;;6.21;100.00
6030;BME280;3043;42.682;23.376;2022-11-25T00:37:12;94688.94;;;6.24;100.00
6030;BME280;3043;42.682;23.376;2022-11-25T00:39:37;94685.50;;;6.25;100.00
6030;BME280;3043;42.682;23.376;2022-11-25T00:42:03;94679.41;;;6.31;100.00
6030;BME280;3043;42.682;23.376;2022-11-25T00:44:47;94675.88;;;6.41;100.00
6030;BME280;3043;42.682;23.376;2022-11-25T00:47:15;94681.06;;;6.38;100.00
6030;BME280;3043;42.682;23.376;2022-11-25T00:49:43;94678.59;;;6.30;100.00
6030;BME280;3043;42.682;23.376;2022-11-25T00:52:13;94681.25;;;6.23;100.00
6030;BME280;3043;42.682;23.376;2022-11-25T00:54:39;94679.25;;;6.43;100.00
6030;BME280;3043;42.682;23.376;2022-11-25T00:57:04;94669.22;;;6.25;100.00
6030;BME280;3043;42.682;23.376;2022-11-25T00:59:30;94694.06;;;6.26;100.00
6030;BME280;3043;42.682;23.376;2022-11-25T01:01:55;94675.06;;;6.37;100.00
6030;BME280;3043;42.682;23.376;2022-11-25T01:04:21;94688.09;;;6.24;100.00
6030;BME280;3043;42.682;23.376;2022-11-25T01:06:46;94660.75;;;6.20;100.00
6030;BME280;3043;42.682;23.376;2022-11-25T01:09:12;94686.47;;;6.18;100.00
6030;BME280;3043;42.682;23.376;2022-11-25T01:11:37;94690.75;;;6.16;100.00
6030;BME280;3043;42.682;23.376;2022-11-25T01:14:03;94691.56;;;6.20;100.00
6030;BME280;3043;42.682;23.376;2022-11-25T01:16:29;94689.69;;;6.31;100.00
6030;BME280;3043;42.682;23.376;2022-11-25T01:18:57;94698.28;;;6.30;100.00
6030;BME280;3043;42.682;23.376;2022-11-25T01:21:25;94686.25;;;6.33;100.00
6030;BME280;3043;42.682;23.376;2022-11-25T01:23:51;94689.78;;;6.25;100.00
6030;BME280;3043;42.682;23.376;2022-11-25T01:26:19;94672.59;;;6.30;100.00
6030;BME280;3043;42.682;23.376;2022-11-25T01:28:45;94683.88;;;6.20;100.00
6030;BME280;3043;42.682;23.376;2022-11-25T01:31:19;94685.44;;;6.30;100.00
6030;BME280;3043;42.682;23.376;2022-11-25T01:33:46;94701.78;;;6.26;100.00
6030;BME280;3043;42.682;23.376;2022-11-25T01:36:14;94699.16;;;6.30;100.00
6030;BME280;3043;42.682;23.376;2022-11-25T01:38:40;94682.16;;;6.19;100.00
6030;BME280;3043;42.682;23.376;2022-11-25T01:41:07;94671.84;;;6.22;100.00
6030;BME280;3043;42.682;23.376;2022-11-25T01:43:33;94667.53;;;6.24;100.00
6030;BME280;3043;42.682;23.376;2022-11-25T01:46:20;94671.72;;;6.29;100.00
6030;BME280;3043;42.682;23.376;2022-11-25T01:49:01;94660.41;;;6.44;100.00
6030;BME280;3043;42.682;23.376;2022-11-25T01:54:09;94654.53;;;6.34;100.00
6030;BME280;3043;42.682;23.376;2022-11-25T01:56:41;94659.47;;;6.48;100.00
6030;BME280;3043;42.682;23.376;2022-11-25T01:59:09;94660.28;;;6.53;100.00
6030;BME280;3043;42.682;23.376;2022-11-25T02:01:35;94660.41;;;6.44;100.00
6030;BME280;3043;42.682;23.376;2022-11-25T02:04:01;94663.88;;;6.40;100.00
6030;BME280;3043;42.682;23.376;2022-11-25T02:06:37;94663.16;;;6.30;100.00
6030;BME280;3043;42.682;23.376;2022-11-25T02:09:06;94670.66;;;6.45;100.00
6030;BME280;3043;42.682;23.376;2022-11-25T02:11:35;94672.34;;;6.48;100.00
6030;BME280;3043;42.682;23.376;2022-11-25T02:14:01;94678.22;;;6.56;100.00
6030;BME280;3043;42.682;23.376;2022-11-25T02:16:27;94681.63;;;6.55;100.00
6030;BME280;3043;42.682;23.376;2022-11-25T02:18:53;94689.34;;;6.55;100.00
6030;BME280;3043;42.682;23.376;2022-11-25T02:21:24;94682.63;;;6.48;100.00
6030;BME280;3043;42.682;23.376;2022-11-25T02:24:00;94676.69;;;6.43;100.00
6030;BME280;3043;42.682;23.376;2022-11-25T02:26:28;94686.09;;;6.44;100.00
6030;BME280;3043;42.682;23.376;2022-11-25T02:28:54;94687.56;;;6.60;100.00
6030;BME280;3043;42.682;23.376;2022-11-25T02:31:21;94693.50;;;6.66;100.00
6030;BME280;3043;42.682;23.376;2022-11-25T02:33:47;94696.19;;;6.59;100.00
6030;BME280;3043;42.682;23.376;2022-11-25T02:36:15;94698.00;;;6.51;100.00
6030;BME280;3043;42.682;23.376;2022-11-25T02:41:16;94698.91;;;6.48;100.00
6030;BME280;3043;42.682;23.376;2022-11-25T02:43:42;94691.03;;;6.59;100.00
6030;BME280;3043;42.682;23.376;2022-11-25T02:46:13;94686.78;;;6.55;100.00
6030;BME280;3043;42.682;23.376;2022-11-25T02:48:40;94695.94;;;6.74;100.00
6030;BME280;3043;42.682;23.376;2022-11-25T02:51:07;94693.59;;;6.60;100.00
6030;BME280;3043;42.682;23.376;2022-11-25T02:53:33;94688.56;;;6.53;100.00
6030;BME280;3043;42.682;23.376;2022-11-25T02:55:59;94697.28;;;6.40;100.00
6030;BME280;3043;42.682;23.376;2022-11-25T02:58:25;94695.63;;;6.37;100.00
6030;BME280;3043;42.682;23.376;2022-11-25T03:00:51;94705.06;;;6.34;100.00
6030;BME280;3043;42.682;23.376;2022-11-25T03:03:17;94698.13;;;6.42;100.00
6030;BME280;3043;42.682;23.376;2022-11-25T03:05:42;94702.34;;;6.46;100.00
6030;BME280;3043;42.682;23.376;2022-11-25T03:08:08;94699.72;;;6.49;100.00
6030;BME280;3043;42.682;23.376;2022-11-25T03:10:34;94710.34;;;6.25;100.00
6030;BME280;3043;42.682;23.376;2022-11-25T03:12:59;94696.56;;;6.32;100.00
6030;BME280;3043;42.682;23.376;2022-11-25T03:15:25;94713.66;;;6.33;100.00
6030;BME280;3043;42.682;23.376;2022-11-25T03:17:51;94708.69;;;6.21;100.00
6030;BME280;3043;42.682;23.376;2022-11-25T03:20:17;94711.22;;;6.22;100.00
6030;BME280;3043;42.682;23.376;2022-11-25T03:22:43;94700.88;;;6.28;100.00
6030;BME280;3043;42.682;23.376;2022-11-25T03:25:10;94709.56;;;6.20;100.00
6030;BME280;3043;42.682;23.376;2022-11-25T03:27:36;94711.91;;;6.38;100.00
6030;BME280;3043;42.682;23.376;2022-11-25T03:30:04;94717.19;;;6.26;100.00
6030;BME280;3043;42.682;23.376;2022-11-25T03:32:30;94715.47;;;6.25;100.00
6030;BME280;3043;42.682;23.376;2022-11-25T03:34:55;94720.66;;;6.22;100.00
6030;BME280;3043;42.682;23.376;2022-11-25T03:37:21;94723.25;;;6.19;100.00
6030;BME280;3043;42.682;23.376;2022-11-25T03:39:46;94724.03;;;6.27;100.00
6030;BME280;3043;42.682;23.376;2022-11-25T03:42:12;94726.72;;;6.18;100.00
6030;BME280;3043;42.682;23.376;2022-11-25T03:44:38;94717.31;;;6.14;100.00
6030;BME280;3043;42.682;23.376;2022-11-25T03:47:03;94726.81;;;6.10;100.00
6030;BME280;3043;42.682;23.376;2022-11-25T03:49:29;94727.72;;;6.05;100.00
6030;BME280;3043;42.682;23.376;2022-11-25T03:51:54;94732.78;;;6.11;100.00
6030;BME280;3043;42.682;23.376;2022-11-25T03:54:20;94736.38;;;5.98;100.00
6030;BME280;3043;42.682;23.376;2022-11-25T03:56:45;94733.78;;;5.99;100.00
6030;BME280;3043;42.682;23.376;2022-11-25T03:59:11;94729.44;;;6.06;100.00
6030;BME280;3043;42.682;23.376;2022-11-25T04:01:36;94732.72;;;6.14;100.00
6030;BME280;3043;42.682;23.376;2022-11-25T04:04:02;94729.47;;;6.03;100.00
6030;BME280;3043;42.682;23.376;2022-11-25T04:06:28;94750.16;;;5.91;100.00
6030;BME280;3043;42.682;23.376;2022-11-25T04:08:54;94742.53;;;5.83;100.00
6030;BME280;3043;42.682;23.376;2022-11-25T04:11:19;94741.72;;;5.74;100.00
6030;BME280;3043;42.682;23.376;2022-11-25T04:13:44;94748.69;;;5.63;100.00
6030;BME280;3043;42.682;23.376;2022-11-25T04:16:22;94745.19;;;5.73;100.00
6030;BME280;3043;42.682;23.376;2022-11-25T04:18:49;94748.63;;;5.69;100.00
6030;BME280;3043;42.682;23.376;2022-11-25T04:21:14;94747.81;;;5.62;100.00
6030;BME280;3043;42.682;23.376;2022-11-25T04:23:40;94757.28;;;5.59;100.00
6030;BME280;3043;42.682;23.376;2022-11-25T04:26:05;94760.66;;;5.61;100.00
6030;BME280;3043;42.682;23.376;2022-11-25T04:28:30;94764.19;;;5.50;100.00
6030;BME280;3043;42.682;23.376;2022-11-25T04:30:56;94765.78;;;5.64;100.00
6030;BME280;3043;42.682;23.376;2022-11-25T04:33:21;94775.31;;;5.53;100.00
6030;BME280;3043;42.682;23.376;2022-11-25T04:35:47;94776.06;;;5.61;100.00
6030;BME280;3043;42.682;23.376;2022-11-25T04:38:12;94773.47;;;5.67;100.00
6030;BME280;3043;42.682;23.376;2022-11-25T04:40:38;94782.91;;;5.65;100.00
6030;BME280;3043;42.682;23.376;2022-11-25T04:43:03;94784.69;;;5.57;100.00
6030;BME280;3043;42.682;23.376;2022-11-25T04:45:29;94784.75;;;5.50;100.00
6030;BME280;3043;42.682;23.376;2022-11-25T04:47:54;94790.69;;;5.56;100.00
6030;BME280;3043;42.682;23.376;2022-11-25T04:50:22;94781.25;;;5.54;100.00
6030;BME280;3043;42.682;23.376;2022-11-25T04:52:48;94785.59;;;5.53;100.00
6030;BME280;3043;42.682;23.376;2022-11-25T04:55:14;94792.47;;;5.46;100.00
6030;BME280;3043;42.682;23.376;2022-11-25T04:57:39;94796.69;;;5.51;100.00
6030;BME280;3043;42.682;23.376;2022-11-25T05:00:06;94803.59;;;5.46;100.00
6030;BME280;3043;42.682;23.376;2022-11-25T05:02:31;94790.00;;;5.35;100.00
6030;BME280;3043;42.682;23.376;2022-11-25T05:04:57;94803.63;;;5.43;100.00
6030;BME280;3043;42.682;23.376;2022-11-25T05:07:25;94805.41;;;5.32;100.00
6030;BME280;3043;42.682;23.376;2022-11-25T05:09:51;94812.22;;;5.36;100.00
6030;BME280;3043;42.682;23.376;2022-11-25T05:12:19;94813.91;;;5.43;100.00
6030;BME280;3043;42.682;23.376;2022-11-25T05:14:45;94815.59;;;5.44;100.00
6030;BME280;3043;42.682;23.376;2022-11-25T05:17:15;94820.66;;;5.53;100.00
6030;BME280;3043;42.682;23.376;2022-11-25T05:19:41;94832.66;;;5.48;100.00
6030;BME280;3043;42.682;23.376;2022-11-25T05:22:11;94824.00;;;5.62;100.00
6030;BME280;3043;42.682;23.376;2022-11-25T05:24:36;94818.97;;;5.49;100.00
6030;BME280;3043;42.682;23.376;2022-11-25T05:27:02;94827.41;;;5.61;100.00
6030;BME280;3043;42.682;23.376;2022-11-25T05:29:27;94835.19;;;5.53;100.00
6030;BME280;3043;42.682;23.376;2022-11-25T05:31:53;94834.34;;;5.54;100.00
6030;BME280;3043;42.682;23.376;2022-11-25T05:34:18;94847.13;;;5.59;100.00
6030;BME280;3043;42.682;23.376;2022-11-25T05:36:44;94847.13;;;5.60;100.00
6030;BME280;3043;42.682;23.376;2022-11-25T05:39:09;94851.44;;;5.57;100.00
6030;BME280;3043;42.682;23.376;2022-11-25T05:41:35;94859.88;;;5.71;100.00
6030;BME280;3043;42.682;23.376;2022-11-25T05:44:00;94860.66;;;5.79;100.00
6030;BME280;3043;42.682;23.376;2022-11-25T05:46:26;94863.19;;;5.88;100.00
6030;BME280;3043;42.682;23.376;2022-11-25T05:48:53;94868.31;;;5.91;100.00
6030;BME280;3043;42.682;23.376;2022-11-25T05:51:19;94875.09;;;5.95;100.00
6030;BME280;3043;42.682;23.376;2022-11-25T05:53:44;94883.72;;;5.91;100.00
6030;BME280;3043;42.682;23.376;2022-11-25T05:56:10;94880.97;;;6.10;100.00
6030;BME280;3043;42.682;23.376;2022-11-25T05:58:35;94892.03;;;6.14;100.00
6030;BME280;3043;42.682;23.376;2022-11-25T06:01:06;94890.88;;;6.46;100.00
6030;BME280;3043;42.682;23.376;2022-11-25T06:03:32;94894.63;;;6.92;100.00
6030;BME280;3043;42.682;23.376;2022-11-25T06:05:58;94901.31;;;7.04;100.00
6030;BME280;3043;42.682;23.376;2022-11-25T06:08:24;94909.75;;;7.15;100.00
6030;BME280;3043;42.682;23.376;2022-11-25T06:10:50;94921.72;;;7.19;100.00
6030;BME280;3043;42.682;23.376;2022-11-25T06:13:16;94920.63;;;7.38;100.00
6030;BME280;3043;42.682;23.376;2022-11-25T06:15:42;94917.50;;;7.74;100.00
6030;BME280;3043;42.682;23.376;2022-11-25T06:18:09;94925.44;;;8.15;100.00
6030;BME280;3043;42.682;23.376;2022-11-25T06:20:35;94918.72;;;8.05;100.00
6030;BME280;3043;42.682;23.376;2022-11-25T06:23:00;94946.53;;;8.41;100.00
6030;BME280;3043;42.682;23.376;2022-11-25T06:25:26;94946.63;;;8.82;100.00
6030;BME280;3043;42.682;23.376;2022-11-25T06:27:52;94943.66;;;8.56;100.00
6030;BME280;3043;42.682;23.376;2022-11-25T06:30:17;94940.31;;;8.51;100.00
6030;BME280;3043;42.682;23.376;2022-11-25T06:32:43;94945.94;;;8.24;100.00
6030;BME280;3043;42.682;23.376;2022-11-25T06:35:08;94957.91;;;8.28;100.00
6030;BME280;3043;42.682;23.376;2022-11-25T06:37:34;94943.66;;;8.05;100.00
6030;BME280;3043;42.682;23.376;2022-11-25T06:40:00;94970.06;;;7.60;100.00
6030;BME280;3043;42.682;23.376;2022-11-25T06:42:26;94958.06;;;7.60;100.00
6030;BME280;3043;42.682;23.376;2022-11-25T06:44:51;94975.47;;;7.42;100.00
6030;BME280;3043;42.682;23.376;2022-11-25T06:47:16;94974.81;;;7.29;100.00
6030;BME280;3043;42.682;23.376;2022-11-25T06:49:42;94983.34;;;7.29;100.00
6030;BME280;3043;42.682;23.376;2022-11-25T06:52:07;94985.28;;;7.11;100.00
6030;BME280;3043;42.682;23.376;2022-11-25T06:54:33;94993.88;;;7.10;100.00
6030;BME280;3043;42.682;23.376;2022-11-25T06:56:58;94973.34;;;7.07;100.00
6030;BME280;3043;42.682;23.376;2022-11-25T06:59:24;94994.72;;;7.12;100.00
6030;BME280;3043;42.682;23.376;2022-11-25T07:01:49;94990.44;;;7.11;100.00
6030;BME280;3043;42.682;23.376;2022-11-25T07:04:15;94988.75;;;7.10;100.00
6030;BME280;3043;42.682;23.376;2022-11-25T07:06:40;94998.69;;;7.37;100.00
6030;BME280;3043;42.682;23.376;2022-11-25T07:09:06;94986.91;;;7.21;100.00
6030;BME280;3043;42.682;23.376;2022-11-25T07:11:37;94994.69;;;7.15;100.00
6030;BME280;3043;42.682;23.376;2022-11-25T07:14:06;95000.56;;;7.26;100.00
6030;BME280;3043;42.682;23.376;2022-11-25T07:16:33;95005.78;;;7.23;100.00
6030;BME280;3043;42.682;23.376;2022-11-25T07:19:00;95015.94;;;7.32;100.00
6030;BME280;3043;42.682;23.376;2022-11-25T07:21:29;94999.53;;;7.41;100.00
6030;BME280;3043;42.682;23.376;2022-11-25T07:23:58;95006.34;;;7.43;100.00
6030;BME280;3043;42.682;23.376;2022-11-25T07:26:26;95004.56;;;7.50;100.00
6030;BME280;3043;42.682;23.376;2022-11-25T07:28:54;94988.00;;;7.67;100.00
6030;BME280;3043;42.682;23.376;2022-11-25T07:31:24;95009.66;;;7.53;100.00
6030;BME280;3043;42.682;23.376;2022-11-25T07:33:51;95006.75;;;7.78;100.00
6030;BME280;3043;42.682;23.376;2022-11-25T07:36:17;95007.00;;;7.60;100.00
6030;BME280;3043;42.682;23.376;2022-11-25T07:38:43;95007.03;;;7.57;100.00
6030;BME280;3043;42.682;23.376;2022-11-25T07:41:13;95011.16;;;7.69;100.00
6030;BME280;3043;42.682;23.376;2022-11-25T07:43:39;95008.31;;;7.91;100.00
6030;BME280;3043;42.682;23.376;2022-11-25T07:48:41;95011.56;;;8.02;100.00
6030;BME280;3043;42.682;23.376;2022-11-25T07:53:47;95027.53;;;8.78;100.00
6030;BME280;3043;42.682;23.376;2022-11-25T07:56:14;95013.59;;;9.77;100.00
6030;BME280;3043;42.682;23.376;2022-11-25T07:58:40;95035.47;;;10.75;100.00
6030;BME280;3043;42.682;23.376;2022-11-25T08:01:07;95031.59;;;11.25;100.00
6030;BME280;3043;42.682;23.376;2022-11-25T08:03:35;95042.78;;;11.89;100.00
6030;BME280;3043;42.682;23.376;2022-11-25T08:06:02;95037.72;;;12.41;100.00
6030;BME280;3043;42.682;23.376;2022-11-25T08:08:28;95039.44;;;12.69;100.00
6030;BME280;3043;42.682;23.376;2022-11-25T08:10:53;95047.78;;;13.06;100.00
6030;BME280;3043;42.682;23.376;2022-11-25T08:13:19;95044.31;;;13.56;96.24
6030;BME280;3043;42.682;23.376;2022-11-25T08:15:44;95047.53;;;14.10;92.53
6030;BME280;3043;42.682;23.376;2022-11-25T08:18:10;95040.84;;;14.03;88.52
6030;BME280;3043;42.682;23.376;2022-11-25T08:20:35;95044.34;;;14.48;86.95
6030;BME280;3043;42.682;23.376;2022-11-25T08:23:01;95053.13;;;14.46;82.74
6030;BME280;3043;42.682;23.376;2022-11-25T08:25:26;95043.56;;;14.00;85.39
6030;BME280;3043;42.682;23.376;2022-11-25T08:27:54;95055.38;;;14.08;87.52
6030;BME280;3043;42.682;23.376;2022-11-25T08:30:19;95055.91;;;13.95;88.11
6030;BME280;3043;42.682;23.376;2022-11-25T08:32:48;95063.84;;;14.38;83.75
6030;BME280;3043;42.682;23.376;2022-11-25T08:35:14;95058.50;;;14.64;82.76
6030;BME280;3043;42.682;23.376;2022-11-25T08:37:39;95045.84;;;14.55;79.67
6030;BME280;3043;42.682;23.376;2022-11-25T08:40:05;95046.84;;;14.28;79.83
6030;BME280;3043;42.682;23.376;2022-11-25T08:42:31;95052.84;;;14.07;82.00
6030;BME280;3043;42.682;23.376;2022-11-25T08:44:56;95053.97;;;14.23;82.64
6030;BME280;3043;42.682;23.376;2022-11-25T08:47:22;95052.19;;;14.02;85.89
6030;BME280;3043;42.682;23.376;2022-11-25T08:49:52;95047.63;;;14.07;84.40
6030;BME280;3043;42.682;23.376;2022-11-25T08:52:18;95045.06;;;14.30;81.87
6030;BME280;3043;42.682;23.376;2022-11-25T08:54:44;95054.88;;;14.45;81.30
6030;BME280;3043;42.682;23.376;2022-11-25T08:57:09;95057.72;;;13.93;83.15
6030;BME280;3043;42.682;23.376;2022-11-25T08:59:34;95048.91;;;14.43;79.52
6030;BME280;3043;42.682;23.376;2022-11-25T09:02:00;95056.31;;;13.60;84.49
6030;BME280;3043;42.682;23.376;2022-11-25T09:04:26;95044.41;;;13.77;85.41
6030;BME280;3043;42.682;23.376;2022-11-25T09:06:51;95046.50;;;13.91;86.10
6030;BME280;3043;42.682;23.376;2022-11-25T09:09:17;95039.41;;;13.96;84.96
6030;BME280;3043;42.682;23.376;2022-11-25T09:11:42;95046.41;;;14.40;82.25
6030;BME280;3043;42.682;23.376;2022-11-25T09:14:08;95050.16;;;14.33;82.27
6030;BME280;3043;42.682;23.376;2022-11-25T09:16:33;95041.84;;;14.00;78.18
6030;BME280;3043;42.682;23.376;2022-11-25T09:18:58;95047.97;;;13.98;82.54
6030;BME280;3043;42.682;23.376;2022-11-25T09:21:24;95047.38;;;13.91;80.81
6030;BME280;3043;42.682;23.376;2022-11-25T09:23:50;95055.09;;;13.70;83.71
6030;BME280;3043;42.682;23.376;2022-11-25T09:26:27;95045.91;;;13.60;86.09
6030;BME280;3043;42.682;23.376;2022-11-25T09:28:53;95058.69;;;13.66;86.59
6030;BME280;3043;42.682;23.376;2022-11-25T09:31:19;95048.78;;;13.52;88.83
6030;BME280;3043;42.682;23.376;2022-11-25T09:33:45;95060.25;;;13.47;89.12
6030;BME280;3043;42.682;23.376;2022-11-25T09:36:13;95062.22;;;13.88;86.63
6030;BME280;3043;42.682;23.376;2022-11-25T09:38:39;95059.53;;;13.42;89.50
6030;BME280;3043;42.682;23.376;2022-11-25T09:44:20;95060.81;;;13.30;91.22
6030;BME280;3043;42.682;23.376;2022-11-25T09:53:25;95049.94;;;13.44;89.17
6030;BME280;3043;42.682;23.376;2022-11-25T09:56:02;95059.06;;;13.80;87.68
6030;BME280;3043;42.682;23.376;2022-11-25T09:58:37;95058.16;;;14.04;83.50
6030;BME280;3043;42.682;23.376;2022-11-25T10:01:10;95058.94;;;13.83;85.23
6030;BME280;3043;42.682;23.376;2022-11-25T10:04:04;95056.19;;;13.63;85.38
6030;BME280;3043;42.682;23.376;2022-11-25T10:06:46;95063.16;;;13.38;87.03
6030;BME280;3043;42.682;23.376;2022-11-25T10:09:15;95065.41;;;13.22;89.47
6030;BME280;3043;42.682;23.376;2022-11-25T10:11:58;95064.47;;;13.49;89.45
6030;BME280;3043;42.682;23.376;2022-11-25T10:17:14;95061.50;;;13.11;88.48
6030;BME280;3043;42.682;23.376;2022-11-25T10:19:52;95048.53;;;13.34;89.81
6030;BME280;3043;42.682;23.376;2022-11-25T10:22:30;95065.97;;;13.32;88.76
6030;BME280;3043;42.682;23.376;2022-11-25T10:25:00;95046.09;;;13.05;89.84
6030;BME280;3043;42.682;23.376;2022-11-25T10:32:50;95060.78;;;13.32;89.71
6030;BME280;3043;42.682;23.376;2022-11-25T10:35:27;95060.16;;;12.98;91.15
6030;BME280;3043;42.682;23.376;2022-11-25T10:37:57;95053.00;;;13.06;92.82
6030;BME280;3043;42.682;23.376;2022-11-25T10:40:24;95054.38;;;12.90;90.63
6030;BME280;3043;42.682;23.376;2022-11-25T10:42:50;95047.81;;;12.78;90.48
6030;BME280;3043;42.682;23.376;2022-11-25T10:45:15;95053.38;;;12.94;90.43
6030;BME280;3043;42.682;23.376;2022-11-25T10:53:26;95066.56;;;12.32;94.81
6030;BME280;3043;42.682;23.376;2022-11-25T10:56:02;95078.13;;;12.22;94.88
6030;BME280;3043;42.682;23.376;2022-11-25T10:58:34;95061.75;;;11.59;97.37
6030;BME280;3043;42.682;23.376;2022-11-25T11:01:23;95058.22;;;10.98;100.00
6030;BME280;3043;42.682;23.376;2022-11-25T11:03:55;95058.81;;;10.73;100.00
6030;BME280;3043;42.682;23.376;2022-11-25T11:06:39;95065.69;;;10.38;100.00
6030;BME280;3043;42.682;23.376;2022-11-25T11:09:05;95049.16;;;10.07;100.00
6030;BME280;3043;42.682;23.376;2022-11-25T11:11:31;95060.28;;;9.68;100.00
6030;BME280;3043;42.682;23.376;2022-11-25T11:14:31;95084.69;;;9.53;100.00
6030;BME280;3043;42.682;23.376;2022-11-25T11:16:55;95068.53;;;9.42;100.00
6030;BME280;3043;42.682;23.376;2022-11-25T11:19:26;95069.28;;;9.49;100.00
6030;BME280;3043;42.682;23.376;2022-11-25T11:21:53;95069.34;;;9.46;100.00
6030;BME280;3043;42.682;23.376;2022-11-25T11:24:32;95062.38;;;9.51;100.00
6030;BME280;3043;42.682;23.376;2022-11-25T11:27:13;95070.88;;;9.56;100.00
6030;BME280;3043;42.682;23.376;2022-11-25T11:29:40;95068.88;;;9.70;100.00
6030;BME280;3043;42.682;23.376;2022-11-25T11:32:06;95079.31;;;9.64;100.00
6030;BME280;3043;42.682;23.376;2022-11-25T11:37:44;95077.56;;;9.66;100.00
6030;BME280;3043;42.682;23.376;2022-11-25T11:40:35;95080.06;;;9.70;100.00
6030;BME280;3043;42.682;23.376;2022-11-25T11:56:32;95092.38;;;10.78;100.00
6030;BME280;3043;42.682;23.376;2022-11-25T12:01:58;95089.25;;;10.64;100.00
6030;BME280;3043;42.682;23.376;2022-11-25T12:04:30;95106.75;;;10.53;100.00
6030;BME280;3043;42.682;23.376;2022-11-25T12:07:35;95076.72;;;10.08;100.00
6030;BME280;3043;42.682;23.376;2022-11-25T12:12:49;95084.56;;;10.02;100.00
6030;BME280;3043;42.682;23.376;2022-11-25T12:17:50;95079.47;;;9.99;100.00
6030;BME280;3043;42.682;23.376;2022-11-25T12:23:07;95081.03;;;10.06;100.00
6030;BME280;3043;42.682;23.376;2022-11-25T12:25:36;95083.25;;;9.83;100.00
6030;BME280;3043;42.682;23.376;2022-11-25T12:28:42;95094.78;;;10.09;100.00
6030;BME280;3043;42.682;23.376;2022-11-25T12:31:23;95087.59;;;10.23;100.00
6030;BME280;3043;42.682;23.376;2022-11-25T12:34:04;95088.91;;;10.00;100.00
6030;BME280;3043;42.682;23.376;2022-11-25T12:36:36;95094.97;;;9.99;100.00
6030;BME280;3043;42.682;23.376;2022-11-25T12:39:31;95072.09;;;9.81;100.00
6030;BME280;3043;42.682;23.376;2022-11-25T12:42:02;95086.25;;;9.62;100.00
6030;BME280;3043;42.682;23.376;2022-11-25T12:47:13;95072.69;;;9.52;100.00
6030;BME280;3043;42.682;23.376;2022-11-25T12:49:47;95072.81;;;9.45;100.00
6030;BME280;3043;42.682;23.376;2022-11-25T12:52:23;95077.94;;;9.48;100.00
6030;BME280;3043;42.682;23.376;2022-11-25T13:00:20;95068.72;;;9.33;100.00
6030;BME280;3043;42.682;23.376;2022-11-25T13:08:42;95079.72;;;9.44;100.00
6030;BME280;3043;42.682;23.376;2022-11-25T13:16:40;95076.66;;;9.23;100.00
6030;BME280;3043;42.682;23.376;2022-11-25T13:19:10;95067.41;;;9.11;100.00
6030;BME280;3043;42.682;23.376;2022-11-25T13:21:59;95065.41;;;9.28;100.00
6030;BME280;3043;42.682;23.376;2022-11-25T13:24:33;95085.25;;;9.25;100.00
6030;BME280;3043;42.682;23.376;2022-11-25T13:27:02;95051.06;;;9.11;100.00
6030;BME280;3043;42.682;23.376;2022-11-25T13:31:59;95076.47;;;8.84;100.00
6030;BME280;3043;42.682;23.376;2022-11-25T13:34:29;95075.78;;;8.76;100.00
6030;BME280;3043;42.682;23.376;2022-11-25T13:36:57;95079.38;;;8.66;100.00
6030;BME280;3043;42.682;23.376;2022-11-25T13:42:15;95089.88;;;8.54;100.00
6030;BME280;3043;42.682;23.376;2022-11-25T13:44:56;95096.00;;;8.49;100.00
6030;BME280;3043;42.682;23.376;2022-11-25T13:47:32;95096.09;;;8.41;100.00
6030;BME280;3043;42.682;23.376;2022-11-25T13:50:21;95095.34;;;8.33;100.00
6030;BME280;3043;42.682;23.376;2022-11-25T13:57:40;95103.03;;;8.38;100.00
6030;BME280;3043;42.682;23.376;2022-11-25T14:22:57;95128.88;;;7.65;100.00
6030;BME280;3043;42.682;23.376;2022-11-25T14:25:26;95123.78;;;7.59;100.00
6030;BME280;3043;42.682;23.376;2022-11-25T14:27:59;95129.06;;;7.47;100.00
6030;BME280;3043;42.682;23.376;2022-11-25T14:30:33;95124.00;;;7.38;100.00
6030;BME280;3043;42.682;23.376;2022-11-25T14:33:10;95127.47;;;7.34;100.00
6030;BME280;3043;42.682;23.376;2022-11-25T14:35:44;95117.22;;;7.31;100.00
6030;BME280;3043;42.682;23.376;2022-11-25T14:38:18;95123.97;;;7.41;100.00
6030;BME280;3043;42.682;23.376;2022-11-25T14:40:53;95131.84;;;7.29;100.00
6030;BME280;3043;42.682;23.376;2022-11-25T14:43:21;95124.19;;;7.23;100.00
6030;BME280;3043;42.682;23.376;2022-11-25T14:45:47;95124.13;;;7.29;100.00
6030;BME280;3043;42.682;23.376;2022-11-25T14:48:32;95132.81;;;7.16;100.00
6030;BME280;3043;42.682;23.376;2022-11-25T14:51:04;95129.44;;;7.08;100.00
6030;BME280;3043;42.682;23.376;2022-11-25T14:53:37;95126.78;;;7.15;100.00
6030;BME280;3043;42.682;23.376;2022-11-25T14:56:03;95131.16;;;7.09;100.00
6030;BME280;3043;42.682;23.376;2022-11-25T14:58:29;95122.56;;;7.10;100.00
6030;BME280;3043;42.682;23.376;2022-11-25T15:01:01;95126.00;;;7.12;100.00
6030;BME280;3043;42.682;23.376;2022-11-25T15:03:28;95128.63;;;7.06;100.00
6030;BME280;3043;42.682;23.376;2022-11-25T15:06:02;95132.97;;;6.98;100.00
6030;BME280;3043;42.682;23.376;2022-11-25T15:08:38;95119.16;;;7.05;100.00
6030;BME280;3043;42.682;23.376;2022-11-25T15:11:11;95134.78;;;6.87;100.00